Terminal Aerodrome Forecast
Issued by NWS Cleveland, OH

Home | Current Version | Previous Version | Text Only | Print | Product List | Glossary On
Versions: 1 2 3 4 5 6 7 8 9 10 11 12 13 14 15 16 17 18 19 20 21 22 23 24 25 26 27 28 29 30
000
FTUS41 KCLE 012300
TAFCLE
TAF
KCLE 012336Z 0200/0306 VRB05KT P6SM SKC
     FM020300 18010KT P6SM SCT250
     FM021500 20018G28KT P6SM VCSH SCT050 OVC100
     FM021900 20020G30KT P6SM -SHRA SCT025 OVC050
     FM022100 20015G25KT 5SM -RA BR OVC025
     FM030200 25012KT 4SM -RA OVC009=

USA.gov is the U.S. government's official web portal to all federal, state and local government web resources and services.